createdAt,value
2023-01-06T00:00:46.192Z,1015.70
2023-01-06T00:01:46.279Z,1015.69
2023-01-06T00:02:46.156Z,1015.68
2023-01-06T00:03:46.147Z,1015.65
2023-01-06T00:04:46.225Z,1015.63
2023-01-06T00:05:46.143Z,1015.64
2023-01-06T00:06:46.121Z,1015.63
2023-01-06T00:07:46.163Z,1015.63
2023-01-06T00:08:46.123Z,1015.61
2023-01-06T00:09:46.131Z,1015.63
2023-01-06T00:10:46.114Z,1015.62
2023-01-06T00:11:46.123Z,1015.61
2023-01-06T00:12:46.115Z,1015.61
2023-01-06T00:13:46.120Z,1015.64
2023-01-06T00:14:46.112Z,1015.58
2023-01-06T00:15:46.115Z,1015.60
2023-01-06T00:16:46.091Z,1015.59
2023-01-06T00:17:46.219Z,1015.60
2023-01-06T00:18:46.087Z,1015.67
2023-01-06T00:19:46.082Z,1015.63
2023-01-06T00:20:46.088Z,1015.64
2023-01-06T00:21:46.085Z,1015.66
2023-01-06T00:22:46.075Z,1015.68
2023-01-06T00:23:46.073Z,1015.67
2023-01-06T00:24:46.078Z,1015.71
2023-01-06T00:25:46.066Z,1015.67
2023-01-06T00:26:46.066Z,1015.63
2023-01-06T00:27:46.081Z,1015.63
2023-01-06T00:28:46.059Z,1015.64
2023-01-06T00:29:46.073Z,1015.66
2023-01-06T00:30:46.122Z,1015.64
2023-01-06T00:31:46.047Z,1015.62
2023-01-06T00:32:46.040Z,1015.61
2023-01-06T00:33:46.158Z,1015.60
2023-01-06T00:34:46.031Z,1015.59
2023-01-06T00:35:46.036Z,1015.58
2023-01-06T00:36:46.071Z,1015.58
2023-01-06T00:37:46.029Z,1015.58
2023-01-06T00:38:46.035Z,1015.57
2023-01-06T00:39:46.068Z,1015.59
2023-01-06T00:40:46.044Z,1015.58
2023-01-06T00:41:46.055Z,1015.53
2023-01-06T00:42:46.008Z,1015.51
2023-01-06T00:43:46.012Z,1015.55
2023-01-06T00:44:46.003Z,1015.55
2023-01-06T00:45:46.027Z,1015.52
2023-01-06T00:46:46.002Z,1015.49
2023-01-06T00:47:46.027Z,1015.51
2023-01-06T00:49:03.551Z,1015.48
2023-01-06T00:49:46.118Z,1015.46
2023-01-06T00:50:46.032Z,1015.44
2023-01-06T00:51:46.000Z,1015.41
2023-01-06T00:52:45.978Z,1015.42
2023-01-06T00:53:45.993Z,1015.45
2023-01-06T00:54:46.039Z,1015.42
2023-01-06T00:55:46.009Z,1015.44
2023-01-06T00:56:46.010Z,1015.40
2023-01-06T00:57:46.001Z,1015.36
2023-01-06T00:58:46.017Z,1015.40
2023-01-06T00:59:45.990Z,1015.37
2023-01-06T01:00:46.005Z,1015.38
2023-01-06T01:01:46.094Z,1015.35
2023-01-06T01:02:46.012Z,1015.33
2023-01-06T01:03:45.960Z,1015.31
2023-01-06T01:04:45.947Z,1015.31
2023-01-06T01:05:45.974Z,1015.28
2023-01-06T01:06:45.938Z,1015.33
2023-01-06T01:07:45.951Z,1015.30
2023-01-06T01:08:45.953Z,1015.28
2023-01-06T01:09:45.944Z,1015.30
2023-01-06T01:10:45.945Z,1015.31
2023-01-06T01:11:45.939Z,1015.31
2023-01-06T01:12:45.925Z,1015.31
2023-01-06T01:13:45.917Z,1015.31
2023-01-06T01:14:45.929Z,1015.33
2023-01-06T01:15:45.951Z,1015.30
2023-01-06T01:16:45.918Z,1015.29
2023-01-06T01:17:45.919Z,1015.26
2023-01-06T01:18:45.915Z,1015.25
2023-01-06T01:19:45.920Z,1015.23
2023-01-06T01:20:45.892Z,1015.24
2023-01-06T01:21:46.046Z,1015.27
2023-01-06T01:22:45.889Z,1015.27
2023-01-06T01:23:45.889Z,1015.28
2023-01-06T01:24:45.891Z,1015.31
2023-01-06T01:25:45.895Z,1015.28
2023-01-06T01:26:45.876Z,1015.33
2023-01-06T01:27:45.895Z,1015.30
2023-01-06T01:28:45.870Z,1015.32
2023-01-06T01:29:45.879Z,1015.28
2023-01-06T01:30:45.864Z,1015.38
2023-01-06T01:31:45.894Z,1015.32
2023-01-06T01:32:45.865Z,1015.32
2023-01-06T01:33:45.877Z,1015.32
2023-01-06T01:34:45.871Z,1015.29
2023-01-06T01:35:45.851Z,1015.32
2023-01-06T01:36:45.862Z,1015.29
2023-01-06T01:37:45.958Z,1015.29
2023-01-06T01:38:45.856Z,1015.28
2023-01-06T01:39:45.846Z,1015.28
2023-01-06T01:40:45.833Z,1015.29
2023-01-06T01:41:45.859Z,1015.26
2023-01-06T01:42:45.839Z,1015.28
2023-01-06T01:43:45.848Z,1015.28
2023-01-06T01:44:45.841Z,1015.30
2023-01-06T01:45:45.840Z,1015.31
2023-01-06T01:46:45.835Z,1015.30
2023-01-06T01:47:45.817Z,1015.31
2023-01-06T01:48:45.823Z,1015.28
2023-01-06T01:49:45.827Z,1015.30
2023-01-06T01:50:45.812Z,1015.31
2023-01-06T01:51:45.818Z,1015.28
2023-01-06T01:52:45.801Z,1015.30
2023-01-06T01:53:45.928Z,1015.27
2023-01-06T01:54:45.839Z,1015.28
2023-01-06T01:55:45.817Z,1015.25
2023-01-06T01:56:45.795Z,1015.30
2023-01-06T01:57:45.807Z,1015.29
2023-01-06T01:58:45.787Z,1015.30
2023-01-06T01:59:45.781Z,1015.30
2023-01-06T02:00:45.781Z,1015.32
2023-01-06T02:01:45.961Z,1015.36
2023-01-06T02:02:45.822Z,1015.31
2023-01-06T02:03:45.764Z,1015.31
2023-01-06T02:04:45.779Z,1015.28
2023-01-06T02:05:45.782Z,1015.27
2023-01-06T02:06:45.782Z,1015.30
2023-01-06T02:07:45.771Z,1015.30
2023-01-06T02:08:45.769Z,1015.30
2023-01-06T02:09:45.872Z,1015.28
2023-01-06T02:10:45.769Z,1015.29
2023-01-06T02:11:45.752Z,1015.26
2023-01-06T02:12:45.755Z,1015.24
2023-01-06T02:13:45.748Z,1015.23
2023-01-06T02:14:45.744Z,1015.23
2023-01-06T02:15:45.800Z,1015.22
2023-01-06T02:16:45.758Z,1015.22
2023-01-06T02:17:45.726Z,1015.28
2023-01-06T02:18:45.740Z,1015.27
2023-01-06T02:19:45.727Z,1015.22
2023-01-06T02:20:45.724Z,1015.23
2023-01-06T02:21:45.719Z,1015.22
2023-01-06T02:22:45.744Z,1015.19
2023-01-06T02:23:45.708Z,1015.18
2023-01-06T02:24:45.722Z,1015.15
2023-01-06T02:25:45.828Z,1015.11
2023-01-06T02:26:45.729Z,1015.10
2023-01-06T02:27:45.710Z,1015.08
2023-01-06T02:28:45.698Z,1015.07
2023-01-06T02:29:45.693Z,1015.03
2023-01-06T02:30:45.720Z,1015.05
2023-01-06T02:31:45.706Z,1015.03
2023-01-06T02:32:45.705Z,1015.00
2023-01-06T02:33:45.691Z,1015.03
2023-01-06T02:34:45.700Z,1015.00
2023-01-06T02:35:45.678Z,1015.00
2023-01-06T02:36:45.690Z,1014.98
2023-01-06T02:37:45.689Z,1014.95
2023-01-06T02:38:45.681Z,1014.94
2023-01-06T02:39:45.681Z,1014.92
2023-01-06T02:40:45.675Z,1014.92
2023-01-06T02:41:45.812Z,1014.90
2023-01-06T02:42:45.680Z,1014.88
2023-01-06T02:43:45.651Z,1014.87
2023-01-06T02:44:45.662Z,1014.86
2023-01-06T02:45:45.647Z,1014.82
2023-01-06T02:46:45.698Z,1014.80
2023-01-06T02:47:45.658Z,1014.80
2023-01-06T02:48:45.659Z,1014.76
2023-01-06T02:49:45.647Z,1014.74
2023-01-06T02:50:45.652Z,1014.72
2023-01-06T02:51:45.646Z,1014.72
2023-01-06T02:52:45.631Z,1014.70
2023-01-06T02:53:45.635Z,1014.72
2023-01-06T02:54:45.635Z,1014.69
2023-01-06T02:55:45.620Z,1014.71
2023-01-06T02:56:45.620Z,1014.72
2023-01-06T02:57:45.647Z,1014.71
2023-01-06T02:58:45.613Z,1014.70
2023-01-06T02:59:45.602Z,1014.73
2023-01-06T03:00:45.617Z,1014.68
2023-01-06T03:01:45.764Z,1014.67
2023-01-06T03:02:45.606Z,1014.73
2023-01-06T03:03:45.602Z,1014.70
2023-01-06T03:04:45.674Z,1014.71
2023-01-06T03:05:45.598Z,1014.69
2023-01-06T03:06:45.588Z,1014.71
2023-01-06T03:07:45.584Z,1014.73
2023-01-06T03:08:45.589Z,1014.71
2023-01-06T03:09:45.591Z,1014.73
2023-01-06T03:10:45.578Z,1014.71
2023-01-06T03:11:45.568Z,1014.70
2023-01-06T03:12:45.589Z,1014.69
2023-01-06T03:13:45.698Z,1014.68
2023-01-06T03:14:45.572Z,1014.63
2023-01-06T03:15:45.606Z,1014.62
2023-01-06T03:16:45.560Z,1014.62
2023-01-06T03:17:45.557Z,1014.59
2023-01-06T03:18:45.567Z,1014.63
2023-01-06T03:19:45.555Z,1014.59
2023-01-06T03:20:45.545Z,1014.60
2023-01-06T03:21:45.557Z,1014.62
2023-01-06T03:22:45.556Z,1014.61
2023-01-06T03:23:45.541Z,1014.63
2023-01-06T03:24:45.546Z,1014.62
2023-01-06T03:25:45.546Z,1014.63
2023-01-06T03:26:45.561Z,1014.60
2023-01-06T03:27:45.526Z,1014.60
2023-01-06T03:28:45.543Z,1014.58
2023-01-06T03:29:45.631Z,1014.54
2023-01-06T03:30:45.540Z,1014.58
2023-01-06T03:31:45.526Z,1014.57
2023-01-06T03:32:45.526Z,1014.56
2023-01-06T03:33:45.507Z,1014.62
2023-01-06T03:34:45.521Z,1014.64
2023-01-06T03:35:45.500Z,1014.64
2023-01-06T03:36:45.525Z,1014.66
2023-01-06T03:37:45.494Z,1014.68
2023-01-06T03:38:45.497Z,1014.66
2023-01-06T03:39:45.505Z,1014.67
2023-01-06T03:40:45.510Z,1014.66
2023-01-06T03:41:45.505Z,1014.62
2023-01-06T03:42:45.485Z,1014.56
2023-01-06T03:43:45.484Z,1014.60
2023-01-06T03:44:45.496Z,1014.56
2023-01-06T03:45:45.588Z,1014.61
2023-01-06T03:46:45.498Z,1014.59
2023-01-06T03:47:45.471Z,1014.55
2023-01-06T03:48:45.488Z,1014.50
2023-01-06T03:49:45.466Z,1014.56
2023-01-06T03:50:45.464Z,1014.58
2023-01-06T03:51:45.474Z,1014.52
2023-01-06T03:52:45.488Z,1014.52
2023-01-06T03:53:45.464Z,1014.60
2023-01-06T03:54:45.466Z,1014.56
2023-01-06T03:55:45.459Z,1014.57
2023-01-06T03:56:45.465Z,1014.57
2023-01-06T03:57:45.452Z,1014.55
2023-01-06T03:58:45.451Z,1014.59
2023-01-06T03:59:45.433Z,1014.63
2023-01-06T04:00:45.453Z,1014.63
2023-01-06T04:01:45.651Z,1014.63
2023-01-06T04:02:45.431Z,1014.64
2023-01-06T04:03:45.497Z,1014.60
2023-01-06T04:04:45.428Z,1014.55
2023-01-06T04:05:45.430Z,1014.52
2023-01-06T04:06:45.426Z,1014.42
2023-01-06T04:07:45.432Z,1014.37
2023-01-06T04:08:45.417Z,1014.32
2023-01-06T04:09:45.406Z,1014.30
2023-01-06T04:10:45.408Z,1014.32
2023-01-06T04:11:45.399Z,1014.28
2023-01-06T04:12:45.416Z,1014.26
2023-01-06T04:13:45.399Z,1014.28
2023-01-06T04:14:45.396Z,1014.25
2023-01-06T04:15:45.389Z,1014.28
2023-01-06T04:16:45.403Z,1014.23
2023-01-06T04:17:45.525Z,1014.27
2023-01-06T04:18:45.399Z,1014.25
2023-01-06T04:19:45.393Z,1014.24
2023-01-06T04:20:45.391Z,1014.31
2023-01-06T04:21:45.377Z,1014.25
2023-01-06T04:22:45.407Z,1014.21
2023-01-06T04:23:45.386Z,1014.22
2023-01-06T04:24:45.366Z,1014.22
2023-01-06T04:25:45.391Z,1014.18
2023-01-06T04:26:45.370Z,1014.23
2023-01-06T04:27:45.358Z,1014.27
2023-01-06T04:28:45.381Z,1014.24
2023-01-06T04:29:45.363Z,1014.23
2023-01-06T04:30:45.348Z,1014.21
2023-01-06T04:31:45.379Z,1014.23
2023-01-06T04:32:45.346Z,1014.26
2023-01-06T04:33:45.462Z,1014.21
2023-01-06T04:34:45.356Z,1014.27
2023-01-06T04:35:45.345Z,1014.24
2023-01-06T04:36:45.345Z,1014.23
2023-01-06T04:37:48.663Z,1014.16
2023-01-06T04:38:45.430Z,1014.15
2023-01-06T04:39:45.326Z,1014.11
2023-01-06T04:40:45.325Z,1014.12
2023-01-06T04:41:45.318Z,1014.06
2023-01-06T04:42:45.315Z,1014.07
2023-01-06T04:43:45.329Z,1014.09
2023-01-06T04:44:45.328Z,1014.05
2023-01-06T04:45:45.389Z,1014.05
2023-01-06T04:46:45.316Z,1014.02
2023-01-06T04:47:45.309Z,1014.03
2023-01-06T04:48:45.322Z,1014.02
2023-01-06T04:49:45.461Z,1013.94
2023-01-06T04:50:45.310Z,1013.94
2023-01-06T04:51:45.307Z,1013.95
2023-01-06T04:52:45.305Z,1013.92
2023-01-06T04:53:45.292Z,1013.92
2023-01-06T04:54:45.298Z,1013.92
2023-01-06T04:55:45.292Z,1013.96
2023-01-06T04:56:45.273Z,1013.93
2023-01-06T04:57:45.283Z,1013.91
2023-01-06T04:58:45.269Z,1013.89
2023-01-06T04:59:45.262Z,1013.91
2023-01-06T05:00:45.332Z,1013.91
2023-01-06T05:01:45.328Z,1013.87
2023-01-06T05:02:45.259Z,1013.91
2023-01-06T05:03:45.270Z,1013.92
2023-01-06T05:04:47.923Z,1013.94
2023-01-06T05:05:45.382Z,1013.87
2023-01-06T05:06:45.263Z,1013.90
2023-01-06T05:07:45.258Z,1013.93
2023-01-06T05:08:45.417Z,1013.98
2023-01-06T05:09:45.264Z,1013.89
2023-01-06T05:10:45.235Z,1013.93
2023-01-06T05:11:45.227Z,1013.91
2023-01-06T05:12:45.229Z,1013.87
2023-01-06T05:13:45.350Z,1013.88
2023-01-06T05:14:45.228Z,1013.93
2023-01-06T05:15:45.233Z,1013.88
2023-01-06T05:16:45.287Z,1013.84
2023-01-06T05:17:45.224Z,1013.87
2023-01-06T05:18:45.331Z,1013.91
2023-01-06T05:19:45.234Z,1013.93
2023-01-06T05:20:45.213Z,1013.93
2023-01-06T05:21:45.318Z,1013.96
2023-01-06T05:22:45.220Z,1013.95
2023-01-06T05:23:45.328Z,1013.98
2023-01-06T05:24:45.208Z,1013.97
2023-01-06T05:25:45.204Z,1013.97
2023-01-06T05:26:45.209Z,1013.92
2023-01-06T05:27:45.208Z,1013.89
2023-01-06T05:28:45.241Z,1013.95
2023-01-06T05:29:45.178Z,1013.95
2023-01-06T05:30:45.181Z,1013.88
2023-01-06T05:31:45.252Z,1013.89
2023-01-06T05:32:45.176Z,1013.91
2023-01-06T05:33:45.177Z,1013.88
2023-01-06T05:34:45.179Z,1013.93
2023-01-06T05:35:45.166Z,1013.91
2023-01-06T05:36:45.160Z,1013.96
2023-01-06T05:37:45.285Z,1013.95
2023-01-06T05:38:45.167Z,1013.95
2023-01-06T05:39:45.172Z,1013.92
2023-01-06T05:40:45.166Z,1013.87
2023-01-06T05:41:45.144Z,1013.89
2023-01-06T05:42:45.164Z,1013.88
2023-01-06T05:43:45.297Z,1013.85
2023-01-06T05:44:45.152Z,1013.88
2023-01-06T05:45:45.148Z,1013.87
2023-01-06T05:46:45.147Z,1013.85
2023-01-06T05:47:45.140Z,1013.88
2023-01-06T05:48:45.144Z,1013.89
2023-01-06T05:49:46.813Z,1013.90
2023-01-06T05:50:45.137Z,1013.89
2023-01-06T05:51:45.126Z,1013.88
2023-01-06T05:52:45.142Z,1013.90
2023-01-06T05:53:45.236Z,1013.99
2023-01-06T05:54:45.118Z,1013.98
2023-01-06T05:55:45.116Z,1013.96
2023-01-06T05:56:45.118Z,1013.99
2023-01-06T05:57:45.101Z,1014.03
2023-01-06T05:58:45.121Z,1014.02
2023-01-06T05:59:45.106Z,1014.02
2023-01-06T06:00:45.121Z,1014.01
2023-01-06T06:01:45.234Z,1014.02
2023-01-06T06:02:45.114Z,1013.96
2023-01-06T06:03:45.164Z,1014.01
2023-01-06T06:04:45.094Z,1014.03
2023-01-06T06:05:45.083Z,1013.97
2023-01-06T06:06:45.085Z,1014.02
2023-01-06T06:07:45.080Z,1013.99
2023-01-06T06:08:45.069Z,1013.98
2023-01-06T06:09:45.204Z,1013.99
2023-01-06T06:10:45.082Z,1014.01
2023-01-06T06:11:45.075Z,1014.01
2023-01-06T06:12:45.072Z,1014.03
2023-01-06T06:13:45.052Z,1013.96
2023-01-06T06:14:45.062Z,1014.01
2023-01-06T06:15:45.066Z,1014.06
2023-01-06T06:16:45.122Z,1014.05
2023-01-06T06:17:45.045Z,1014.04
2023-01-06T06:18:45.055Z,1014.04
2023-01-06T06:19:45.064Z,1014.04
2023-01-06T06:20:45.064Z,1014.04
2023-01-06T06:21:45.036Z,1014.01
2023-01-06T06:22:45.040Z,1014.05
2023-01-06T06:23:45.061Z,1014.05
2023-01-06T06:24:45.029Z,1014.03
2023-01-06T06:25:45.162Z,1014.02
2023-01-06T06:26:45.033Z,1013.97
2023-01-06T06:27:45.032Z,1014.04
2023-01-06T06:28:45.025Z,1014.02
2023-01-06T06:29:45.030Z,1014.02
2023-01-06T06:30:45.015Z,1014.04
2023-01-06T06:31:45.138Z,1014.04
2023-01-06T06:32:45.012Z,1014.11
2023-01-06T06:33:45.009Z,1014.08
2023-01-06T06:34:45.004Z,1014.06
2023-01-06T06:35:44.993Z,1014.02
2023-01-06T06:36:45.003Z,1014.07
2023-01-06T06:37:44.997Z,1014.06
2023-01-06T06:38:44.983Z,1014.09
2023-01-06T06:39:44.988Z,1014.09
2023-01-06T06:40:44.999Z,1014.08
2023-01-06T06:41:45.115Z,1014.05
2023-01-06T06:42:44.984Z,1014.05
2023-01-06T06:43:45.003Z,1014.07
2023-01-06T06:44:44.973Z,1014.08
2023-01-06T06:45:45.035Z,1014.08
2023-01-06T06:46:44.984Z,1014.02
2023-01-06T06:47:44.964Z,1014.04
2023-01-06T06:48:44.978Z,1014.01
2023-01-06T06:49:44.975Z,1013.98
2023-01-06T06:50:44.961Z,1013.99
2023-01-06T06:51:44.966Z,1013.97
2023-01-06T06:52:44.965Z,1014.00
2023-01-06T06:53:44.958Z,1013.99
2023-01-06T06:54:44.955Z,1014.04
2023-01-06T06:55:44.947Z,1014.00
2023-01-06T06:56:44.952Z,1013.98
2023-01-06T06:57:45.066Z,1013.98
2023-01-06T06:58:44.941Z,1013.98
2023-01-06T06:59:44.953Z,1013.98
2023-01-06T07:00:44.933Z,1013.95
2023-01-06T07:01:45.041Z,1013.91
2023-01-06T07:02:44.914Z,1013.93
2023-01-06T07:03:44.922Z,1013.93
2023-01-06T07:04:44.967Z,1013.86
2023-01-06T07:05:44.981Z,1013.89
2023-01-06T07:06:44.920Z,1013.88
2023-01-06T07:07:44.906Z,1013.88
2023-01-06T07:08:44.923Z,1013.87
2023-01-06T07:09:44.940Z,1013.87
2023-01-06T07:10:44.893Z,1013.86
2023-01-06T07:11:44.897Z,1013.86
2023-01-06T07:12:44.902Z,1013.85
2023-01-06T07:13:45.050Z,1013.88
2023-01-06T07:14:44.915Z,1013.86
2023-01-06T07:15:44.949Z,1013.81
2023-01-06T07:16:44.891Z,1013.89
2023-01-06T07:17:44.881Z,1013.84
2023-01-06T07:18:44.952Z,1013.88
2023-01-06T07:19:44.872Z,1013.82
2023-01-06T07:20:44.877Z,1013.88
2023-01-06T07:21:44.877Z,1013.83
2023-01-06T07:22:44.875Z,1013.78
2023-01-06T07:23:44.875Z,1013.76
2023-01-06T07:24:44.854Z,1013.75
2023-01-06T07:25:44.867Z,1013.71
2023-01-06T07:26:44.853Z,1013.74
2023-01-06T07:27:44.862Z,1013.69
2023-01-06T07:28:44.846Z,1013.60
2023-01-06T07:29:44.970Z,1013.60
2023-01-06T07:30:44.851Z,1013.59
2023-01-06T07:31:44.837Z,1013.58
2023-01-06T07:32:44.857Z,1013.58
2023-01-06T07:33:44.834Z,1013.59
2023-01-06T07:34:44.838Z,1013.58
2023-01-06T07:35:44.845Z,1013.53
2023-01-06T07:36:44.823Z,1013.57
2023-01-06T07:37:44.830Z,1013.55
2023-01-06T07:38:44.834Z,1013.57
2023-01-06T07:39:44.837Z,1013.52
2023-01-06T07:40:44.825Z,1013.59
2023-01-06T07:41:44.814Z,1013.64
2023-01-06T07:42:44.808Z,1013.66
2023-01-06T07:43:44.811Z,1013.67
2023-01-06T07:44:44.816Z,1013.61
2023-01-06T07:45:45.049Z,1013.65
2023-01-06T07:46:44.810Z,1013.64
2023-01-06T07:47:44.806Z,1013.62
2023-01-06T07:48:44.798Z,1013.64
2023-01-06T07:49:44.801Z,1013.61
2023-01-06T07:50:44.781Z,1013.64
2023-01-06T07:51:44.782Z,1013.60
2023-01-06T07:52:44.792Z,1013.63
2023-01-06T07:53:44.789Z,1013.60
2023-01-06T07:54:44.786Z,1013.65
2023-01-06T07:55:44.773Z,1013.69
2023-01-06T07:56:44.763Z,1013.79
2023-01-06T07:57:44.793Z,1013.73
2023-01-06T07:58:44.773Z,1013.78
2023-01-06T07:59:44.774Z,1013.77
2023-01-06T08:00:44.759Z,1013.83
2023-01-06T08:01:45.035Z,1013.75
2023-01-06T08:02:44.788Z,1013.75
2023-01-06T08:03:44.773Z,1013.75
2023-01-06T08:04:44.750Z,1013.81
2023-01-06T08:05:44.759Z,1013.77
2023-01-06T08:06:44.739Z,1013.78
2023-01-06T08:07:44.739Z,1013.77
2023-01-06T08:08:44.732Z,1013.76
2023-01-06T08:09:44.733Z,1013.83
2023-01-06T08:10:44.748Z,1013.78
2023-01-06T08:11:44.734Z,1013.77
2023-01-06T08:12:44.740Z,1013.78
2023-01-06T08:13:44.735Z,1013.85
2023-01-06T08:14:44.710Z,1013.87
2023-01-06T08:15:44.772Z,1013.87
2023-01-06T08:16:44.745Z,1013.92
2023-01-06T08:17:44.736Z,1013.92
2023-01-06T08:18:44.717Z,1013.96
2023-01-06T08:19:44.733Z,1013.89
2023-01-06T08:20:44.700Z,1013.88
2023-01-06T08:21:44.696Z,1013.92
2023-01-06T08:22:44.707Z,1013.96
2023-01-06T08:23:44.710Z,1013.91
2023-01-06T08:24:44.716Z,1013.91
2023-01-06T08:25:44.683Z,1013.92
2023-01-06T08:26:44.695Z,1013.93
2023-01-06T08:27:44.686Z,1013.94
2023-01-06T08:28:44.687Z,1013.96
2023-01-06T08:29:44.705Z,1013.94
2023-01-06T08:30:44.678Z,1013.96
2023-01-06T08:31:44.684Z,1013.98
2023-01-06T08:32:44.698Z,1014.03
2023-01-06T08:33:44.791Z,1014.00
2023-01-06T08:34:44.668Z,1014.00
2023-01-06T08:35:44.678Z,1014.02
2023-01-06T08:36:44.668Z,1014.01
2023-01-06T08:37:44.660Z,1014.07
2023-01-06T08:38:44.668Z,1014.05
2023-01-06T08:39:44.670Z,1014.02
2023-01-06T08:40:44.668Z,1014.03
2023-01-06T08:41:44.681Z,1014.00
2023-01-06T08:42:44.661Z,1013.97
2023-01-06T08:43:45.624Z,1014.06
2023-01-06T08:44:44.642Z,1014.02
2023-01-06T08:45:44.639Z,1013.99
2023-01-06T08:46:44.659Z,1014.02
2023-01-06T08:47:44.647Z,1013.99
2023-01-06T08:48:44.749Z,1013.94
2023-01-06T08:49:44.748Z,1013.97
2023-01-06T08:50:44.640Z,1014.02
2023-01-06T08:51:44.629Z,1013.98
2023-01-06T08:52:44.640Z,1014.02
2023-01-06T08:53:44.630Z,1014.07
2023-01-06T08:54:44.629Z,1014.14
2023-01-06T08:55:44.619Z,1014.10
2023-01-06T08:56:44.644Z,1014.13
2023-01-06T08:57:44.630Z,1014.13
2023-01-06T08:58:44.608Z,1014.19
2023-01-06T08:59:44.621Z,1014.18
2023-01-06T09:00:44.615Z,1014.16
2023-01-06T09:01:44.848Z,1014.18
2023-01-06T09:02:44.613Z,1014.20
2023-01-06T09:03:44.604Z,1014.24
2023-01-06T09:04:44.696Z,1014.24
2023-01-06T09:05:44.714Z,1014.26
2023-01-06T09:06:44.595Z,1014.27
2023-01-06T09:07:44.613Z,1014.27
2023-01-06T09:08:44.584Z,1014.32
2023-01-06T09:09:44.585Z,1014.30
2023-01-06T09:10:44.602Z,1014.32
2023-01-06T09:11:44.599Z,1014.31
2023-01-06T09:12:44.598Z,1014.29
2023-01-06T09:13:44.599Z,1014.34
2023-01-06T09:14:44.577Z,1014.35
2023-01-06T09:15:44.659Z,1014.39
2023-01-06T09:16:44.566Z,1014.33
2023-01-06T09:17:44.583Z,1014.37
2023-01-06T09:18:44.580Z,1014.37
2023-01-06T09:19:44.590Z,1014.46
2023-01-06T09:20:44.572Z,1014.43
2023-01-06T09:21:44.683Z,1014.37
2023-01-06T09:22:44.580Z,1014.41
2023-01-06T09:23:44.564Z,1014.42
2023-01-06T09:24:44.582Z,1014.40
2023-01-06T09:25:44.571Z,1014.41
2023-01-06T09:26:44.572Z,1014.44
2023-01-06T09:27:44.577Z,1014.47
2023-01-06T09:28:44.582Z,1014.46
2023-01-06T09:29:44.551Z,1014.41
2023-01-06T09:30:44.559Z,1014.45
2023-01-06T09:31:44.555Z,1014.46
2023-01-06T09:32:44.554Z,1014.45
2023-01-06T09:33:44.569Z,1014.43
2023-01-06T09:34:44.541Z,1014.47
2023-01-06T09:35:44.557Z,1014.49
2023-01-06T09:36:44.552Z,1014.43
2023-01-06T09:37:44.678Z,1014.44
2023-01-06T09:38:44.552Z,1014.43
2023-01-06T09:39:44.560Z,1014.45
2023-01-06T09:40:44.568Z,1014.47
2023-01-06T09:41:44.546Z,1014.44
2023-01-06T09:42:44.549Z,1014.47
2023-01-06T09:43:44.555Z,1014.43
2023-01-06T09:44:44.540Z,1014.43
2023-01-06T09:45:44.527Z,1014.46
2023-01-06T09:46:44.594Z,1014.47
2023-01-06T09:47:44.536Z,1014.50
2023-01-06T09:48:44.526Z,1014.50
2023-01-06T09:49:44.522Z,1014.53
2023-01-06T09:50:44.526Z,1014.49
2023-01-06T09:51:44.539Z,1014.54
2023-01-06T09:52:44.578Z,1014.57
2023-01-06T09:53:44.675Z,1014.56
2023-01-06T09:54:44.523Z,1014.56
2023-01-06T09:55:44.523Z,1014.56
2023-01-06T09:56:44.499Z,1014.56
2023-01-06T09:57:44.501Z,1014.59
2023-01-06T09:58:44.511Z,1014.57
2023-01-06T09:59:44.501Z,1014.58
2023-01-06T10:00:44.507Z,1014.59
2023-01-06T10:01:44.609Z,1014.61
2023-01-06T10:02:44.497Z,1014.56
2023-01-06T10:03:44.531Z,1014.62
2023-01-06T10:04:44.500Z,1014.55
2023-01-06T10:05:44.540Z,1014.56
2023-01-06T10:06:44.520Z,1014.56
2023-01-06T10:07:44.512Z,1014.58
2023-01-06T10:08:44.492Z,1014.57
2023-01-06T10:09:44.618Z,1014.56
2023-01-06T10:10:44.514Z,1014.52
2023-01-06T10:11:44.483Z,1014.50
2023-01-06T10:12:44.492Z,1014.50
2023-01-06T10:13:44.487Z,1014.60
2023-01-06T10:14:44.484Z,1014.59
2023-01-06T10:15:44.500Z,1014.61
2023-01-06T10:16:44.478Z,1014.63
2023-01-06T10:17:44.596Z,1014.62
2023-01-06T10:18:44.482Z,1014.67
2023-01-06T10:19:44.477Z,1014.66
2023-01-06T10:20:44.469Z,1014.68
2023-01-06T10:21:44.461Z,1014.68
2023-01-06T10:22:44.464Z,1014.69
2023-01-06T10:23:44.468Z,1014.73
2023-01-06T10:24:44.455Z,1014.74
2023-01-06T10:25:44.616Z,1014.75
2023-01-06T10:26:44.473Z,1014.78
2023-01-06T10:27:44.495Z,1014.73
2023-01-06T10:28:44.487Z,1014.69
2023-01-06T10:29:44.461Z,1014.69
2023-01-06T10:30:44.639Z,1014.65
2023-01-06T10:31:44.512Z,1014.60
2023-01-06T10:32:44.470Z,1014.63
2023-01-06T10:33:44.442Z,1014.68
2023-01-06T10:34:44.451Z,1014.77
2023-01-06T10:35:44.444Z,1014.80
2023-01-06T10:36:44.438Z,1014.81
2023-01-06T10:37:44.591Z,1014.72
2023-01-06T10:38:44.444Z,1014.76
2023-01-06T10:39:44.465Z,1014.77
2023-01-06T10:40:44.441Z,1014.80
2023-01-06T10:41:44.555Z,1014.85
2023-01-06T10:42:44.432Z,1014.77
2023-01-06T10:43:44.428Z,1014.76
2023-01-06T10:44:44.432Z,1014.77
2023-01-06T10:45:44.445Z,1014.80
2023-01-06T10:46:44.480Z,1014.79
2023-01-06T10:47:44.426Z,1014.82
2023-01-06T10:48:44.409Z,1014.78
2023-01-06T10:49:44.411Z,1014.76
2023-01-06T10:50:44.408Z,1014.72
2023-01-06T10:51:44.435Z,1014.75
2023-01-06T10:52:44.402Z,1014.76
2023-01-06T10:53:44.401Z,1014.78
2023-01-06T10:54:44.416Z,1014.73
2023-01-06T10:55:44.391Z,1014.71
2023-01-06T10:56:44.441Z,1014.69
2023-01-06T10:57:44.523Z,1014.71
2023-01-06T10:58:44.391Z,1014.64
2023-01-06T10:59:44.413Z,1014.68
2023-01-06T11:00:44.431Z,1014.64
2023-01-06T11:01:44.519Z,1014.66
2023-01-06T11:02:44.455Z,1014.71
2023-01-06T11:03:44.499Z,1014.68
2023-01-06T11:04:44.381Z,1014.72
2023-01-06T11:05:44.395Z,1014.65
2023-01-06T11:06:44.375Z,1014.66
2023-01-06T11:07:44.426Z,1014.62
2023-01-06T11:08:44.393Z,1014.68
2023-01-06T11:09:44.383Z,1014.69
2023-01-06T11:10:44.378Z,1014.65
2023-01-06T11:11:44.391Z,1014.65
2023-01-06T11:12:44.381Z,1014.61
2023-01-06T11:13:44.472Z,1014.57
2023-01-06T11:14:44.363Z,1014.63
2023-01-06T11:15:44.368Z,1014.57
2023-01-06T11:16:44.443Z,1014.56
2023-01-06T11:17:44.362Z,1014.54
2023-01-06T11:18:44.372Z,1014.49
2023-01-06T11:19:44.364Z,1014.56
2023-01-06T11:20:44.383Z,1014.57
2023-01-06T11:21:44.430Z,1014.58
2023-01-06T11:22:44.359Z,1014.49
2023-01-06T11:23:44.340Z,1014.60
2023-01-06T11:24:44.343Z,1014.56
2023-01-06T11:25:44.357Z,1014.56
2023-01-06T11:26:44.338Z,1014.54
2023-01-06T11:27:44.351Z,1014.54
2023-01-06T11:28:44.361Z,1014.48
2023-01-06T11:29:44.457Z,1014.46
2023-01-06T11:30:44.363Z,1014.53
2023-01-06T11:31:44.360Z,1014.54
2023-01-06T11:32:44.344Z,1014.50
2023-01-06T11:33:44.320Z,1014.50
2023-01-06T11:34:44.338Z,1014.48
2023-01-06T11:35:44.349Z,1014.53
2023-01-06T11:36:44.325Z,1014.52
2023-01-06T11:37:44.333Z,1014.56
2023-01-06T11:38:44.331Z,1014.49
2023-01-06T11:39:46.838Z,1014.53
2023-01-06T11:40:44.335Z,1014.50
2023-01-06T11:41:44.334Z,1014.51
2023-01-06T11:42:44.328Z,1014.43
2023-01-06T11:43:44.539Z,1014.46
2023-01-06T11:44:44.306Z,1014.46
2023-01-06T11:45:44.488Z,1014.46
2023-01-06T11:46:44.319Z,1014.45
2023-01-06T11:47:44.293Z,1014.45
2023-01-06T11:48:44.324Z,1014.45
2023-01-06T11:49:44.303Z,1014.48
2023-01-06T11:50:44.310Z,1014.45
2023-01-06T11:51:44.328Z,1014.45
2023-01-06T11:52:44.329Z,1014.49
2023-01-06T11:53:44.295Z,1014.51
2023-01-06T11:54:44.299Z,1014.56
2023-01-06T11:55:44.290Z,1014.57
2023-01-06T11:56:44.282Z,1014.54
2023-01-06T11:57:44.303Z,1014.52
2023-01-06T11:58:44.307Z,1014.48
2023-01-06T11:59:44.273Z,1014.58
2023-01-06T12:00:44.284Z,1014.50
2023-01-06T12:01:44.546Z,1014.51
2023-01-06T12:02:44.287Z,1014.51
2023-01-06T12:03:44.366Z,1014.54
2023-01-06T12:04:44.262Z,1014.53
2023-01-06T12:05:44.270Z,1014.51